createdAt,value
2023-01-03T00:04:49.696Z,10.80
2023-01-03T00:13:13.057Z,9.20
2023-01-03T00:21:36.473Z,9.60
2023-01-03T00:29:59.292Z,10.50
2023-01-03T00:38:22.088Z,10.50
2023-01-03T00:46:47.299Z,7.40
2023-01-03T00:55:10.956Z,10.30
2023-01-03T01:03:35.655Z,9.10
2023-01-03T01:11:58.876Z,8.90
2023-01-03T01:20:21.680Z,9.30
2023-01-03T01:28:44.740Z,8.90
2023-01-03T01:37:07.567Z,9.80
2023-01-03T01:45:30.623Z,9.20
2023-01-03T01:53:55.852Z,9.30
2023-01-03T02:02:22.301Z,8.30
2023-01-03T02:11:06.810Z,8.90
2023-01-03T02:19:59.997Z,8.70
2023-01-03T02:28:41.892Z,8.80
2023-01-03T02:37:15.842Z,9.90
2023-01-03T02:45:53.976Z,8.90
2023-01-03T02:54:42.112Z,9.10
2023-01-03T03:03:11.717Z,8.30
2023-01-03T03:11:56.723Z,8.60
2023-01-03T03:20:38.408Z,9.80
2023-01-03T03:29:08.499Z,10.50
2023-01-03T03:37:35.924Z,8.40
2023-01-03T03:46:10.435Z,7.90
2023-01-03T03:54:36.855Z,7.70
2023-01-03T04:03:02.733Z,7.00
2023-01-03T04:11:27.056Z,7.90
2023-01-03T04:19:49.946Z,7.10
2023-01-03T04:28:12.783Z,8.60
2023-01-03T04:36:36.046Z,6.70
2023-01-03T04:44:58.905Z,7.80
2023-01-03T04:53:23.597Z,5.70
2023-01-03T05:01:52.313Z,7.00
2023-01-03T05:10:15.523Z,6.90
2023-01-03T05:18:39.305Z,7.30
2023-01-03T05:27:05.449Z,8.00
2023-01-03T05:35:28.211Z,7.10
2023-01-03T05:43:50.983Z,7.60
2023-01-03T05:52:13.847Z,6.80
2023-01-03T06:00:36.730Z,9.60
2023-01-03T06:09:00.008Z,5.80
2023-01-03T06:17:41.714Z,5.10
2023-01-03T06:26:04.622Z,4.10
2023-01-03T06:34:27.398Z,6.00
2023-01-03T06:42:50.210Z,5.20
2023-01-03T06:51:37.253Z,5.70
2023-01-03T07:00:00.108Z,3.80
2023-01-03T07:08:23.084Z,8.90
2023-01-03T07:16:47.868Z,5.70
2023-01-03T07:25:12.228Z,4.10
2023-01-03T07:33:37.259Z,4.40
2023-01-03T07:42:18.940Z,3.90
2023-01-03T07:50:42.462Z,4.30
2023-01-03T07:59:05.252Z,4.60
2023-01-03T08:07:28.018Z,3.90
2023-01-03T08:15:55.823Z,2.90
2023-01-03T08:24:18.750Z,3.10
2023-01-03T08:32:41.849Z,3.30
2023-01-03T08:41:08.722Z,4.00
2023-01-03T08:49:32.347Z,4.30
2023-01-03T08:57:55.271Z,5.10
2023-01-03T09:06:18.940Z,9.60
2023-01-03T09:14:41.878Z,5.50
2023-01-03T09:23:04.708Z,5.20
2023-01-03T09:31:29.370Z,5.40
2023-01-03T09:39:52.314Z,5.70
2023-01-03T09:48:18.564Z,5.10
2023-01-03T09:57:00.032Z,5.30
2023-01-03T10:05:43.324Z,4.90
2023-01-03T10:14:42.753Z,4.40
2023-01-03T10:23:08.035Z,4.20
2023-01-03T10:32:09.206Z,4.10
2023-01-03T10:40:48.164Z,3.60
2023-01-03T10:49:30.594Z,3.80
2023-01-03T10:57:53.476Z,3.10
2023-01-03T11:06:16.456Z,2.90
2023-01-03T11:14:39.306Z,6.30
2023-01-03T11:23:08.774Z,4.50
2023-01-03T11:31:52.613Z,3.00
2023-01-03T11:40:15.491Z,2.60
2023-01-03T11:49:03.228Z,3.30
2023-01-03T11:58:02.432Z,2.50
2023-01-03T12:07:47.029Z,2.60
2023-01-03T12:16:08.859Z,1.80
2023-01-03T12:24:39.386Z,4.70
2023-01-03T12:33:13.463Z,2.30
2023-01-03T12:41:55.013Z,3.00
2023-01-03T12:50:41.443Z,3.80
2023-01-03T12:59:23.281Z,5.50
2023-01-03T13:07:54.835Z,4.20
2023-01-03T13:17:04.762Z,4.20
2023-01-03T13:25:42.762Z,5.70
2023-01-03T13:34:18.389Z,6.60
2023-01-03T13:42:41.310Z,5.10
2023-01-03T13:51:17.778Z,4.80
2023-01-03T13:59:48.029Z,3.80
2023-01-03T14:08:24.102Z,4.20
2023-01-03T14:16:52.278Z,10.60
2023-01-03T14:25:36.710Z,13.20
2023-01-03T14:34:02.904Z,12.10
2023-01-03T14:42:26.536Z,8.50
2023-01-03T14:50:49.678Z,16.00
2023-01-03T14:59:16.706Z,8.00
2023-01-03T15:07:43.440Z,9.90
2023-01-03T15:16:18.957Z,9.70
2023-01-03T15:24:44.981Z,8.80
2023-01-03T15:33:34.441Z,18.40
2023-01-03T15:42:43.595Z,20.70
2023-01-03T15:51:04.547Z,19.40
2023-01-03T15:59:30.194Z,22.10
2023-01-03T16:07:52.987Z,32.40
2023-01-03T16:16:22.087Z,13.50
2023-01-03T16:24:45.485Z,13.90
2023-01-03T16:33:25.634Z,11.70
2023-01-03T16:42:08.446Z,7.90
2023-01-03T16:50:34.040Z,9.80
2023-01-03T16:58:57.048Z,14.10
2023-01-03T17:07:23.757Z,13.90
2023-01-03T17:15:46.633Z,9.10
2023-01-03T17:24:19.899Z,6.90
2023-01-03T17:32:43.079Z,8.50
2023-01-03T17:41:05.913Z,15.10
2023-01-03T17:49:28.825Z,13.10
2023-01-03T17:57:52.049Z,9.80
2023-01-03T18:06:19.743Z,11.10
2023-01-03T18:14:42.549Z,14.10
2023-01-03T18:23:16.389Z,10.10
2023-01-03T18:31:39.653Z,9.10
2023-01-03T18:40:05.751Z,8.40
2023-01-03T18:48:30.806Z,8.30
2023-01-03T18:56:53.635Z,9.70
2023-01-03T19:05:17.157Z,8.70
2023-01-03T19:13:53.287Z,9.40
2023-01-03T19:22:30.731Z,7.90
2023-01-03T19:30:53.554Z,9.70
2023-01-03T19:39:22.423Z,10.20
2023-01-03T19:47:48.104Z,7.70
2023-01-03T19:56:21.456Z,6.60
2023-01-03T20:04:45.162Z,6.80
2023-01-03T20:13:17.187Z,6.00
2023-01-03T20:21:39.990Z,8.20
2023-01-03T20:30:02.877Z,8.50
2023-01-03T20:38:27.290Z,5.80
2023-01-03T20:46:53.737Z,7.00
2023-01-03T20:55:19.089Z,7.70
2023-01-03T21:03:41.956Z,5.60
2023-01-03T21:12:04.994Z,5.30
2023-01-03T21:20:29.769Z,5.20
2023-01-03T21:28:52.904Z,5.30
2023-01-03T21:37:16.041Z,4.10
2023-01-03T21:45:46.421Z,4.90
2023-01-03T21:54:09.771Z,6.00
2023-01-03T22:02:57.858Z,3.80
2023-01-03T22:11:24.928Z,6.50
2023-01-03T22:19:47.765Z,5.50
2023-01-03T22:28:10.526Z,5.40
2023-01-03T22:36:33.406Z,5.00
2023-01-03T22:44:56.250Z,5.00
2023-01-03T22:53:19.121Z,6.40
2023-01-03T23:01:42.817Z,7.00
2023-01-03T23:10:06.417Z,7.30
2023-01-03T23:18:33.124Z,8.30
2023-01-03T23:26:55.987Z,8.50
2023-01-03T23:35:18.938Z,8.60
2023-01-03T23:43:42.268Z,8.80
2023-01-03T23:52:05.424Z,10.40
